Latest Weather Observations for Browse Island

IDW60801

Issued at 12:31 pm WST Thursday 5 May 2016 (issued every 30 minutes, with the page automatically refreshed every 10 minutes)

About weather observations | Map of weather stations | Latest weather observations for WA | Other Formats
Station Details ID: 200784 Name: BROWSE ISLAND Lat: -14.11 Lon: 123.55 Height: 3.7 m
Data from the previous 72 hours. | See also: Recent months at Browse Island
Date/Time
WST
Temp
°C
App
Temp
°C
Dew
Point
Rel
Hum
%
Delta-T
°C
Wind Press
QNH
hPa
Press
MSL
hPa
Rain
since 9 am
mm
Dir
 
Spd
km/h
Gust
km/h
Spd
kts
Gust
kts
05/12:30pm 25.0 - - - - NE 44 46 24 25 1010.0 - -
05/12:13pm 28.0 - - - - NNE 33 57 18 31 1009.0 - -
05/12:00pm 28.8 - - - - N 28 30 15 16 1009.0 1009.5 -
05/11:30am 28.0 - - - - N 33 - 18 - 1010.0 - -
05/11:28am 28.0 - - - - N 32 - 17 - 1010.0 - -
05/11:00am 28.2 - - - - N 11 - 6 - 1010.0 1010.7 -
05/10:30am 26.0 - - - - ENE 9 - 5 - 1011.0 - -
05/10:16am 28.0 - - - - ENE 28 52 15 28 1011.0 - -
05/10:00am 25.2 - - - - NE 13 - 7 - 1011.0 1011.6 -
05/09:54am 27.0 - - - - E 33 56 18 30 1011.0 - -
05/09:30am 31.0 - - - - NE 20 - 11 - 1011.0 - -
05/09:00am 30.7 - - - - NE 24 - 13 - 1011.0 1011.4 -
05/08:30am 30.0 - - - - NE 20 - 11 - 1011.0 - -
05/08:00am 29.5 - - - - NE 22 - 12 - 1010.0 1010.7 -
05/07:30am 28.0 - - - - NE 28 - 15 - 1010.0 - -
05/07:00am 29.8 - - - - NE 24 - 13 - 1010.0 1010.0 -
05/06:30am 30.0 - - - - NE 24 - 13 - 1009.0 - -
05/06:00am 29.4 - - - - NE 22 - 12 - 1009.0 1009.7 -
05/05:30am 29.0 - - - - ENE 24 - 13 - 1009.0 - -
05/05:00am 29.4 - - - - ENE 22 - 12 - 1009.0 1009.4 -
05/04:30am 30.0 - - - - ENE 24 - 13 - 1009.0 - -
05/04:00am 29.3 - - - - NE 22 - 12 - 1009.0 1009.3 -
05/03:30am 29.0 - - - - NE 24 - 13 - 1009.0 - -
05/03:00am 29.3 - - - - NE 22 - 12 - 1009.0 1009.1 -
05/02:30am 29.0 - - - - NE 28 - 15 - 1009.0 - -
05/02:00am 29.4 - - - - NE 28 - 15 - 1009.0 1009.4 -
05/01:30am 30.0 - - - - NE 28 - 15 - 1010.0 - -
05/01:00am 29.4 - - - - NE 28 - 15 - 1010.0 1010.1 -
05/12:30am 29.0 - - - - NE 28 - 15 - 1010.0 - -
05/12:00am 29.4 - - - - NE 30 - 16 - 1010.0 1010.6 -
 
Date/Time
WST
Temp
°C
App
Temp
°C
Dew
Point
Rel
Hum
%
Delta-T
°C
Wind Press
QNH
hPa
Press
MSL
hPa
Rain
since 9 am
mm
Dir
 
Spd
km/h
Gust
km/h
Spd
kts
Gust
kts
04/11:30pm 30.0 - - - - NE 33 - 18 - 1011.0 - -
04/11:00pm 29.7 - - - - NE 30 - 16 - 1011.0 1011.4 -
04/10:30pm 30.0 - - - - NE 30 - 16 - 1011.0 - -
04/10:00pm 29.8 - - - - NE 26 - 14 - 1011.0 1011.7 -
04/09:30pm 30.0 - - - - NE 30 - 16 - 1011.0 - -
04/09:00pm 29.8 - - - - NE 32 - 17 - 1011.0 1011.6 -
04/08:30pm 30.0 - - - - NE 28 - 15 - 1011.0 - -
04/08:00pm 29.5 - - - - NE 33 - 18 - 1011.0 1011.1 -
04/07:30pm 29.0 - - - - NE 32 - 17 - 1011.0 - -
04/07:00pm 29.1 - - - - NE 24 - 13 - 1010.0 1010.6 -
04/06:30pm 28.0 - - - - NE 28 - 15 - 1010.0 - -
04/06:00pm 27.9 - - - - NE 39 - 21 - 1010.0 1010.1 -
04/05:30pm 27.0 - - - - ENE 48 - 26 - 1010.0 - -
04/05:15pm 28.0 - - - - ENE 30 56 16 30 1009.0 - -
04/05:00pm 29.6 - - - - NE 32 - 17 - 1009.0 1009.4 -
04/04:55pm 29.0 - - - - NE 30 48 16 26 1009.0 - -
04/04:30pm 30.0 - - - - NE 22 - 12 - 1008.0 - -
04/04:00pm 30.3 - - - - NE 19 - 10 - 1008.0 1008.7 -
04/03:30pm 31.0 - - - - NE 20 - 11 - 1008.0 - -
04/03:00pm 30.6 - - - - NE 20 - 11 - 1008.0 1008.2 -
04/02:30pm 30.0 - - - - NE 22 - 12 - 1008.0 - -
04/02:00pm 30.6 - - - - NE 22 - 12 - 1008.0 1008.7 -
04/01:30pm 30.0 - - - - NE 20 - 11 - 1009.0 - -
04/01:00pm 30.0 - - - - NE 24 - 13 - 1009.0 1009.6 -
04/12:30pm 30.0 - - - - NE 20 - 11 - 1009.0 - -
04/12:00pm 30.3 - - - - NNE 20 - 11 - 1010.0 1010.2 -
04/11:30am 31.0 - - - - NNE 19 - 10 - 1010.0 - -
04/11:00am 30.0 - - - - NE 22 - 12 - 1011.0 1011.1 -
04/10:30am 29.0 - - - - NE 24 - 13 - 1011.0 - -
04/10:24am 28.0 - - - - ENE 24 - 13 - 1011.0 - -
04/10:11am 29.0 - - - - E 41 - 22 - 1011.0 - -
04/10:00am 31.4 - - - - ENE 17 - 9 - 1011.0 1011.5 -
04/09:30am 31.0 - - - - ENE 20 - 11 - 1012.0 - -
04/09:00am 30.7 - - - - ENE 22 - 12 - 1012.0 1012.0 -
04/08:30am 31.0 - - - - ENE 20 - 11 - 1012.0 - -
04/08:00am 30.7 - - - - ENE 24 - 13 - 1011.0 1011.5 -
04/07:30am 31.0 - - - - ENE 20 - 11 - 1011.0 - -
04/07:00am 30.3 - - - - NE 20 - 11 - 1011.0 1011.1 -
04/06:30am 30.0 - - - - NE 20 - 11 - 1010.0 - -
04/06:00am 29.8 - - - - NE 17 - 9 - 1010.0 1010.5 -
04/05:30am 30.0 - - - - NE 19 - 10 - 1010.0 - -
04/05:00am 29.8 - - - - NE 19 - 10 - 1009.0 1009.7 -
04/04:30am 30.0 - - - - NE 19 - 10 - 1009.0 - -
04/04:00am 29.8 - - - - NE 20 - 11 - 1009.0 1009.4 -
04/03:30am 30.0 - - - - ENE 22 - 12 - 1009.0 - -
04/03:00am 29.7 - - - - ENE 22 - 12 - 1009.0 1009.4 -
04/02:30am 30.0 - - - - NE 20 - 11 - 1009.0 - -
04/02:00am 29.9 - - - - ENE 19 - 10 - 1009.0 1009.8 -
04/01:30am 30.0 - - - - ENE 20 - 11 - 1010.0 - -
04/01:00am 29.8 - - - - E 17 - 9 - 1010.0 1010.3 -
04/12:30am 30.0 - - - - E 17 - 9 - 1010.0 - -
04/12:00am 29.6 - - - - E 15 - 8 - 1010.0 1010.7 -
 
Date/Time
WST
Temp
°C
App
Temp
°C
Dew
Point
Rel
Hum
%
Delta-T
°C
Wind Press
QNH
hPa
Press
MSL
hPa
Rain
since 9 am
mm
Dir
 
Spd
km/h
Gust
km/h
Spd
kts
Gust
kts
03/11:30pm 30.0 - - - - ENE 13 - 7 - 1011.0 - -
03/11:00pm 29.8 - - - - NE 13 - 7 - 1011.0 1010.9 -
03/10:30pm 30.0 - - - - ENE 13 - 7 - 1011.0 - -
03/10:00pm 29.8 - - - - ENE 13 - 7 - 1011.0 1011.3 -
03/09:30pm 30.0 - - - - ENE 13 - 7 - 1011.0 - -
03/09:00pm 30.6 - - - - E 15 - 8 - 1011.0 1011.2 -
03/08:30pm 30.0 - - - - E 11 - 6 - 1011.0 - -
03/08:00pm 30.5 - - - - ESE 11 - 6 - 1011.0 1011.0 -
03/07:30pm 31.0 - - - - ESE 9 - 5 - 1010.0 - -
03/07:00pm 30.5 - - - - E 9 - 5 - 1010.0 1010.5 -
03/06:30pm 31.0 - - - - ESE 9 - 5 - 1010.0 - -
03/06:00pm 30.7 - - - - SE 9 - 5 - 1009.0 1009.7 -
03/05:30pm 31.0 - - - - SE 9 - 5 - 1009.0 - -
03/05:00pm 30.9 - - - - SE 13 - 7 - 1009.0 1009.2 -
03/04:30pm 31.0 - - - - SSE 11 - 6 - 1008.0 - -
03/04:00pm 31.5 - - - - SE 11 - 6 - 1008.0 1008.5 -
03/03:30pm 31.0 - - - - SE 9 - 5 - 1008.0 - -
03/03:00pm 31.7 - - - - SE 11 - 6 - 1008.0 1008.6 -
03/02:30pm 32.0 - - - - SSE 9 - 5 - 1008.0 - -
03/02:00pm 31.9 - - - - SE 9 - 5 - 1008.0 1008.5 -
03/01:30pm 31.0 - - - - SE 11 - 6 - 1008.0 - -
03/01:00pm 31.9 - - - - SE 11 - 6 - 1009.0 1009.1 -
03/12:30pm 32.0 - - - - SSE 9 - 5 - 1009.0 - -
03/12:00pm 31.6 - - - - SSE 9 - 5 - 1010.0 1010.2 -
03/11:30am 32.0 - - - - SE 11 - 6 - 1010.0 - -
03/11:00am 32.1 - - - - SSE 9 - 5 - 1011.0 1011.0 -
03/10:30am 32.0 - - - - SSE 11 - 6 - 1011.0 - -
03/10:00am 31.4 - - - - SE 11 - 6 - 1011.0 1011.6 -
03/09:30am 31.0 - - - - SE 11 - 6 - 1012.0 - -
03/09:00am 31.3 - - - - SSE 13 - 7 - 1012.0 1011.9 -
03/08:30am 31.0 - - - - SSE 13 - 7 - 1011.0 - -
03/08:00am 30.9 - - - - SSE 13 - 7 - 1011.0 1011.6 -
03/07:30am 31.0 - - - - SE 13 - 7 - 1011.0 - -
03/07:00am 30.4 - - - - SE 13 - 7 - 1011.0 1011.2 -
03/06:30am 30.0 - - - - SE 13 - 7 - 1010.0 - -
03/06:00am 30.0 - - - - S 15 - 8 - 1010.0 1010.4 -
03/05:30am 30.0 - - - - S 15 - 8 - 1010.0 - -
03/05:00am 30.0 - - - - S 17 - 9 - 1009.0 1009.8 -
03/04:30am 30.0 - - - - S 17 - 9 - 1009.0 - -
03/04:00am 29.9 - - - - S 15 - 8 - 1009.0 1009.7 -
03/03:30am 30.0 - - - - S 13 - 7 - 1009.0 - -
03/03:00am 29.9 - - - - S 11 - 6 - 1009.0 1009.8 -
03/02:30am 30.0 - - - - S 9 - 5 - 1010.0 - -
03/02:00am 30.0 - - - - S 11 - 6 - 1010.0 1010.2 -
03/01:30am 30.0 - - - - S 9 - 5 - 1010.0 - -
03/01:00am 30.1 - - - - S 9 - 5 - 1010.0 1010.6 -
03/12:30am 30.0 - - - - S 7 - 4 - 1011.0 - -
03/12:00am 30.1 - - - - S 7 - 4 - 1011.0 1011.2 -
 
Date/Time
WST
Temp
°C
App
Temp
°C
Dew
Point
Rel
Hum
%
Delta-T
°C
Wind Press
QNH
hPa
Press
MSL
hPa
Rain
since 9 am
mm
Dir
 
Spd
km/h
Gust
km/h
Spd
kts
Gust
kts
02/11:30pm 30.0 - - - - S 7 - 4 - 1011.0 - -
02/11:00pm 30.2 - - - - SSW 9 - 5 - 1011.0 1011.7 -
02/10:30pm 30.0 - - - - SSW 11 - 6 - 1012.0 - -
02/10:00pm 30.2 - - - - SW 9 - 5 - 1012.0 1011.9 -
02/09:30pm 30.0 - - - - SW 9 - 5 - 1012.0 - -
02/09:00pm 30.4 - - - - SW 11 - 6 - 1012.0 1012.1 -
02/08:30pm 30.0 - - - - SW 13 - 7 - 1012.0 - -
02/08:00pm 30.4 - - - - SW 13 - 7 - 1012.0 1011.9 -
02/07:30pm 31.0 - - - - SSW 13 - 7 - 1011.0 - -
02/07:00pm 30.5 - - - - SSW 15 - 8 - 1011.0 1011.5 -
02/06:30pm 31.0 - - - - SSW 15 - 8 - 1011.0 - -
02/06:00pm 30.8 - - - - S 15 - 8 - 1010.0 1010.6 -
02/05:30pm 31.0 - - - - S 15 - 8 - 1010.0 - -
02/05:00pm 30.7 - - - - S 15 - 8 - 1010.0 1009.9 -
02/04:30pm 31.0 - - - - S 15 - 8 - 1009.0 - -
02/04:00pm 30.7 - - - - S 15 - 8 - 1009.0 1009.2 -
02/03:30pm 31.0 - - - - S 15 - 8 - 1009.0 - -
02/03:00pm 31.0 - - - - S 15 - 8 - 1009.0 1009.2 -
02/02:30pm 31.0 - - - - S 17 - 9 - 1009.0 - -
02/02:00pm 31.0 - - - - S 19 - 10 - 1009.0 1009.6 -
02/01:30pm 31.0 - - - - S 17 - 9 - 1009.0 - -
02/01:00pm 31.0 - - - - S 19 - 10 - 1010.0 1010.0 -

Other Formats:

Comma delimited format used in spreadsheet applications
http://www.bom.gov.au/fwo/IDW60801/IDW60801.94103.axf

JavaScript Object Notation format (JSON) in row-major order
http://www.bom.gov.au/fwo/IDW60801/IDW60801.94103.json